Time;durP1;ratioP1;P1;durP2;ratioP2;P2;SDS_P1;SDS_P2;PMS_P1;PMS_P2;Temp;Humidity;BMP_temperature;BMP_pressure;BME280_temperature;BME280_humidity;BME280_pressure;Samples;Min_cycle;Max_cycle;Signal;HPM_P1;HPM_P2
2022/11/18 00:00:13;;;;;;;16.40;7.57;;;8.40;99.90;;;;;;5106986;28;20315;-78
2022/11/18 00:02:40;;;;;;;4.75;4.35;;;8.40;99.90;;;;;;5108744;28;20229;-78
2022/11/18 00:05:07;;;;;;;6.45;5.88;;;8.50;99.90;;;;;;5114952;28;20253;-77
2022/11/18 00:07:34;;;;;;;6.47;4.90;;;8.50;99.90;;;;;;5114554;28;20220;-82
2022/11/18 00:10:01;;;;;;;5.30;4.80;;;8.60;99.90;;;;;;5114744;28;20303;-77
2022/11/18 00:15:15;;;;;;;5.00;4.60;;;8.50;99.90;;;;;;5110709;28;20196;-81
2022/11/18 00:17:42;;;;;;;4.50;4.10;;;8.50;99.90;;;;;;5115302;28;20217;-76
2022/11/18 00:20:10;;;;;;;4.38;3.97;;;8.50;99.90;;;;;;5113624;22;20316;-75
2022/11/18 00:22:37;;;;;;;4.70;4.30;;;8.60;99.90;;;;;;5114566;27;20236;-78
2022/11/18 00:25:05;;;;;;;3.95;3.65;;;8.60;99.90;;;;;;5117217;27;20204;-78
2022/11/18 00:27:34;;;;;;;4.25;3.95;;;8.60;99.90;;;;;;5108767;27;20221;-76
2022/11/18 00:30:01;;;;;;;3.95;3.65;;;8.70;99.90;;;;;;5109288;28;20221;-80
2022/11/18 00:32:29;;;;;;;4.10;3.70;;;8.70;99.90;;;;;;5113338;27;20215;-77
2022/11/18 00:34:56;;;;;;;3.88;3.58;;;8.70;99.90;;;;;;5108102;27;20211;-79
2022/11/18 00:37:23;;;;;;;3.60;3.40;;;8.70;99.90;;;;;;5107947;27;20280;-79
2022/11/18 00:39:51;;;;;;;4.32;3.78;;;8.80;99.90;;;;;;5108076;27;20224;-77
2022/11/18 00:45:04;;;;;;;4.93;4.53;;;8.80;99.90;;;;;;5117554;27;20330;-75
2022/11/18 00:47:33;;;;;;;3.42;3.22;;;8.80;99.90;;;;;;5106406;27;20589;-80
2022/11/18 00:50:00;;;;;;;3.20;3.00;;;8.80;99.90;;;;;;5107969;27;20243;-77
2022/11/18 00:52:28;;;;;;;4.55;4.05;;;8.80;99.90;;;;;;5105228;28;20239;-77
2022/11/18 00:54:55;;;;;;;4.07;3.78;;;8.90;99.90;;;;;;5114905;27;20196;-81
2022/11/18 00:57:22;;;;;;;3.80;3.58;;;8.80;99.90;;;;;;5110654;27;20716;-76
2022/11/18 00:59:50;;;;;;;3.63;3.38;;;8.80;99.90;;;;;;5113637;27;20265;-77
2022/11/18 01:02:22;;;;;;;3.80;3.50;;;8.80;99.90;;;;;;5110009;27;20706;-76
2022/11/18 01:04:49;;;;;;;3.35;3.15;;;8.80;99.90;;;;;;5110430;28;20197;-77
2022/11/18 01:07:16;;;;;;;3.38;3.17;;;8.80;99.90;;;;;;5115229;27;20382;-77
2022/11/18 01:09:44;;;;;;;3.33;3.08;;;8.80;99.90;;;;;;5117223;27;20216;-79
2022/11/18 01:14:56;;;;;;;3.47;3.17;;;8.90;99.90;;;;;;5114157;27;20201;-82
2022/11/18 01:17:25;;;;;;;3.22;2.78;;;8.90;99.90;;;;;;5117492;27;20709;-79
2022/11/18 01:19:52;;;;;;;2.95;2.75;;;9.00;99.90;;;;;;5112075;27;20220;-82
2022/11/18 01:22:19;;;;;;;3.38;3.17;;;9.00;99.90;;;;;;5114651;27;20473;-81
2022/11/18 01:24:47;;;;;;;3.65;3.35;;;9.00;99.90;;;;;;5114725;27;20288;-80
2022/11/18 01:27:15;;;;;;;3.90;3.58;;;8.90;99.90;;;;;;5106604;27;20231;-80
2022/11/18 01:29:43;;;;;;;3.40;3.15;;;8.80;99.90;;;;;;5114434;27;20223;-78
2022/11/18 01:32:10;;;;;;;4.30;3.90;;;8.80;99.90;;;;;;5109449;28;20213;-76
2022/11/18 01:34:41;;;;;;;4.25;3.85;;;8.70;99.90;;;;;;5113289;27;20208;-75
2022/11/18 01:37:09;;;;;;;4.00;3.70;;;8.70;99.90;;;;;;5109396;28;20212;-79
2022/11/18 01:39:36;;;;;;;3.90;3.60;;;8.70;99.90;;;;;;5110186;28;20212;-75
2022/11/18 01:42:04;;;;;;;3.63;3.33;;;8.70;99.90;;;;;;5112819;27;20224;-80
2022/11/18 01:44:57;;;;;;;3.70;3.40;;;8.70;99.90;;;;;;5115174;27;20197;-77
2022/11/18 01:47:27;;;;;;;3.60;3.30;;;8.70;99.90;;;;;;5108723;27;20273;-81
2022/11/18 01:49:59;;;;;;;3.85;3.55;;;8.70;99.90;;;;;;5109865;27;20697;-78
2022/11/18 01:52:26;;;;;;;3.80;3.50;;;8.70;99.90;;;;;;5109180;27;20212;-78
2022/11/18 01:54:57;;;;;;;3.60;3.40;;;8.80;99.90;;;;;;5112268;27;20189;-76
2022/11/18 01:57:29;;;;;;;3.53;3.33;;;8.80;99.90;;;;;;5113834;27;20588;-78
2022/11/18 01:59:59;;;;;;;3.60;3.40;;;8.80;99.90;;;;;;5116617;27;20217;-79
2022/11/18 02:02:27;;;;;;;3.75;3.53;;;8.80;99.90;;;;;;5109964;27;20209;-76
2022/11/18 02:04:58;;;;;;;3.90;3.60;;;8.80;99.90;;;;;;5110377;27;20193;-80
2022/11/18 02:07:25;;;;;;;3.72;3.28;;;8.80;99.90;;;;;;5112964;27;20238;-77
2022/11/18 02:09:56;;;;;;;3.40;3.03;;;8.80;99.90;;;;;;5114689;27;20227;-79
2022/11/18 02:12:24;;;;;;;3.30;3.10;;;8.90;99.90;;;;;;5113062;27;20218;-76
2022/11/18 02:14:52;;;;;;;3.20;3.00;;;8.90;99.90;;;;;;5108163;28;20193;-79
2022/11/18 02:17:30;;;;;;;3.45;3.17;;;8.90;99.90;;;;;;5108314;27;20224;-80
2022/11/18 02:20:19;;;;;;;3.20;3.00;;;8.90;99.90;;;;;;5105138;27;20730;-77
2022/11/18 02:23:21;;;;;;;3.20;3.00;;;8.90;99.90;;;;;;5108566;27;20316;-77
2022/11/18 02:26:04;;;;;;;2.90;2.70;;;8.90;99.90;;;;;;5110126;27;20188;-79
2022/11/18 02:28:52;;;;;;;2.85;2.65;;;9.00;99.90;;;;;;5112879;27;20217;-77
2022/11/18 02:31:27;;;;;;;3.28;2.97;;;9.00;99.90;;;;;;5109030;27;20201;-78
2022/11/18 02:33:59;;;;;;;2.92;2.72;;;8.90;99.90;;;;;;5111822;27;20265;-79
2022/11/18 02:36:32;;;;;;;3.13;2.92;;;8.90;99.90;;;;;;5110013;27;20221;-78
2022/11/18 02:39:08;;;;;;;3.10;2.90;;;8.80;99.90;;;;;;5107728;27;20229;-81
2022/11/18 02:41:39;;;;;;;3.22;3.00;;;8.80;99.90;;;;;;5107395;27;20653;-79
2022/11/18 02:44:13;;;;;;;3.40;3.20;;;8.80;99.90;;;;;;5110620;27;20193;-80
2022/11/18 02:46:42;;;;;;;3.15;2.95;;;8.80;99.90;;;;;;5111118;27;20849;-76
2022/11/18 02:49:17;;;;;;;3.00;2.80;;;8.80;99.90;;;;;;5106196;28;20200;-78
2022/11/18 02:51:47;;;;;;;3.40;2.88;;;8.80;99.90;;;;;;5107162;28;20193;-81
2022/11/18 02:54:17;;;;;;;3.03;2.83;;;8.90;99.90;;;;;;5107541;27;20197;-77
2022/11/18 02:56:46;;;;;;;3.20;3.00;;;8.90;99.90;;;;;;5116270;27;20550;-80
2022/11/18 02:59:21;;;;;;;3.33;3.13;;;8.80;99.90;;;;;;5110992;27;20221;-77
2022/11/18 03:01:49;;;;;;;3.30;3.10;;;8.70;99.90;;;;;;5107415;28;20189;-78
2022/11/18 03:04:19;;;;;;;4.20;3.47;;;8.70;99.90;;;;;;5111193;27;20246;-76
2022/11/18 03:06:52;;;;;;;3.67;3.45;;;8.70;99.90;;;;;;5112067;27;20209;-77
2022/11/18 03:09:27;;;;;;;4.22;3.05;;;8.70;99.90;;;;;;5106692;27;20216;-79
2022/11/18 03:12:04;;;;;;;3.33;3.13;;;8.70;99.90;;;;;;5108707;27;20224;-77
2022/11/18 03:14:43;;;;;;;3.65;3.35;;;8.70;99.90;;;;;;5115800;27;20203;-77
2022/11/18 03:17:16;;;;;;;3.03;2.83;;;8.70;99.90;;;;;;5109589;27;20209;-79
2022/11/18 03:19:58;;;;;;;3.55;3.25;;;8.70;99.90;;;;;;5115830;27;20225;-78
2022/11/18 03:22:31;;;;;;;2.92;2.72;;;8.70;99.90;;;;;;5111689;27;20220;-81
2022/11/18 03:25:04;;;;;;;3.20;3.00;;;8.70;99.90;;;;;;5110088;27;20208;-81
2022/11/18 03:27:36;;;;;;;4.30;3.60;;;8.70;99.90;;;;;;5115735;27;20224;-79
2022/11/18 03:30:08;;;;;;;3.50;3.30;;;8.80;99.90;;;;;;5110501;27;20217;-78
2022/11/18 03:32:41;;;;;;;3.10;2.90;;;8.80;99.90;;;;;;5113965;27;20706;-80
2022/11/18 03:35:13;;;;;;;3.10;2.90;;;8.80;99.90;;;;;;5111453;27;20254;-78
2022/11/18 03:37:43;;;;;;;3.08;2.88;;;8.80;99.90;;;;;;5108970;27;20220;-78
2022/11/18 03:40:15;;;;;;;3.00;2.80;;;8.80;99.90;;;;;;5112350;27;20224;-78
2022/11/18 03:42:46;;;;;;;3.55;3.25;;;8.80;99.90;;;;;;5111039;27;20801;-80
2022/11/18 03:45:21;;;;;;;3.03;2.83;;;8.80;99.90;;;;;;5102463;27;20224;-76
2022/11/18 03:47:55;;;;;;;3.92;3.63;;;8.80;99.90;;;;;;5107646;27;20227;-81
2022/11/18 03:50:26;;;;;;;3.85;3.55;;;8.80;99.90;;;;;;5106296;27;20715;-80
2022/11/18 03:52:55;;;;;;;3.50;3.20;;;8.70;99.90;;;;;;5107186;27;20220;-79
2022/11/18 03:55:26;;;;;;;4.07;3.70;;;8.70;99.90;;;;;;5107562;28;20196;-78
2022/11/18 03:58:01;;;;;;;4.07;3.78;;;8.70;99.90;;;;;;5109016;27;20227;-80
2022/11/18 04:00:35;;;;;;;3.50;3.20;;;8.70;99.90;;;;;;5108407;28;20212;-82
2022/11/18 04:03:02;;;;;;;4.68;4.25;;;8.60;99.90;;;;;;5109633;28;20216;-80
2022/11/18 04:05:34;;;;;;;3.88;3.58;;;8.60;99.90;;;;;;5104361;28;20658;-77
2022/11/18 04:08:05;;;;;;;3.35;3.15;;;8.60;99.90;;;;;;5110902;28;20217;-81
2022/11/18 04:10:38;;;;;;;3.85;3.55;;;8.60;99.90;;;;;;5106414;28;20725;-79
2022/11/18 04:13:08;;;;;;;3.45;3.20;;;8.70;99.90;;;;;;5112074;28;21985;-78
2022/11/18 04:15:41;;;;;;;3.20;3.00;;;8.70;99.90;;;;;;5111097;28;20199;-77
2022/11/18 04:18:08;;;;;;;3.15;2.95;;;8.70;99.90;;;;;;5106745;27;20616;-78
2022/11/18 04:20:36;;;;;;;3.30;3.10;;;8.80;99.90;;;;;;5109915;28;20224;-80
2022/11/18 04:23:04;;;;;;;3.38;3.08;;;8.80;99.90;;;;;;5109294;28;20220;-77
2022/11/18 04:25:32;;;;;;;2.88;2.67;;;8.80;99.90;;;;;;5110103;28;20200;-81
2022/11/18 04:27:59;;;;;;;3.40;3.20;;;8.80;99.90;;;;;;5109041;28;20225;-77
2022/11/18 04:30:28;;;;;;;3.63;3.30;;;8.80;99.90;;;;;;5109728;28;20216;-80
2022/11/18 04:32:57;;;;;;;3.70;3.40;;;8.80;99.90;;;;;;5104861;27;20216;-78
2022/11/18 04:35:24;;;;;;;3.75;3.45;;;8.70;99.90;;;;;;5114515;28;20672;-81
2022/11/18 04:37:52;;;;;;;3.58;3.28;;;8.70;99.90;;;;;;5107058;28;20212;-78
2022/11/18 04:40:19;;;;;;;3.85;3.55;;;8.60;99.90;;;;;;5114059;28;20220;-78
2022/11/18 04:42:47;;;;;;;3.50;3.20;;;8.60;99.90;;;;;;5109174;27;20212;-78
2022/11/18 04:45:14;;;;;;;3.65;3.35;;;8.60;99.90;;;;;;5105855;28;20193;-76
2022/11/18 04:47:42;;;;;;;3.60;3.40;;;8.60;99.90;;;;;;5106193;28;20217;-76
2022/11/18 04:50:12;;;;;;;3.45;3.25;;;8.60;99.90;;;;;;5109341;28;20217;-79
2022/11/18 04:52:39;;;;;;;4.15;3.10;;;8.70;99.90;;;;;;5107976;27;20823;-77
2022/11/18 04:55:06;;;;;;;3.97;3.67;;;8.60;99.90;;;;;;5108543;28;20189;-77
2022/11/18 04:57:34;;;;;;;5.95;4.55;;;8.60;99.90;;;;;;5105944;28;20215;-79
2022/11/18 05:00:01;;;;;;;3.55;3.30;;;8.50;99.90;;;;;;5109020;28;20216;-78
2022/11/18 05:02:29;;;;;;;4.10;3.80;;;8.40;99.90;;;;;;5111666;28;20211;-78
2022/11/18 05:04:56;;;;;;;4.30;3.90;;;8.50;99.90;;;;;;5107951;28;20200;-78
2022/11/18 05:07:25;;;;;;;3.65;3.42;;;8.50;99.90;;;;;;5111812;27;20728;-80
2022/11/18 05:09:52;;;;;;;4.30;3.90;;;8.50;99.90;;;;;;5115729;27;20224;-82
2022/11/18 05:15:05;;;;;;;3.85;3.42;;;8.60;99.90;;;;;;5111456;28;20258;-79
2022/11/18 05:17:34;;;;;;;3.20;3.00;;;8.60;99.90;;;;;;5112784;28;20224;-82
2022/11/18 05:20:02;;;;;;;3.40;3.20;;;8.60;99.90;;;;;;5109882;27;20234;-78
2022/11/18 05:22:31;;;;;;;3.83;3.53;;;8.70;99.90;;;;;;5114774;27;20212;-81
2022/11/18 05:24:58;;;;;;;3.67;3.38;;;8.70;99.90;;;;;;5110418;27;20201;-81
2022/11/18 05:27:25;;;;;;;3.95;3.55;;;8.60;99.90;;;;;;5119835;27;20223;-80
2022/11/18 05:29:53;;;;;;;4.10;3.80;;;8.60;99.90;;;;;;5111907;27;20846;-79
2022/11/18 05:32:20;;;;;;;3.80;3.50;;;8.70;99.90;;;;;;5116734;27;20237;-78
2022/11/18 05:34:48;;;;;;;3.53;3.33;;;8.70;99.90;;;;;;5113550;27;20196;-81
2022/11/18 05:37:15;;;;;;;3.90;3.60;;;8.70;99.90;;;;;;5115634;27;20566;-78
2022/11/18 05:39:45;;;;;;;3.78;3.47;;;8.70;99.90;;;;;;5112542;27;20225;-81
2022/11/18 05:44:59;;;;;;;4.60;4.20;;;8.60;99.90;;;;;;5112041;27;20250;-77
2022/11/18 05:47:58;;;;;;;4.35;4.00;;;8.60;99.90;;;;;;5110694;28;20217;-78
2022/11/18 05:50:15;;;;;;;4.40;4.10;;;8.60;99.90;;;;;;5109277;27;20216;-77
2022/11/18 05:52:42;;;;;;;4.60;4.30;;;8.60;99.90;;;;;;5109481;28;20216;-80
2022/11/18 05:55:14;;;;;;;4.57;4.20;;;8.50;99.90;;;;;;5117688;27;20193;-81
2022/11/18 05:57:41;;;;;;;5.05;4.20;;;8.50;99.90;;;;;;5107250;27;20219;-79
2022/11/18 06:00:10;;;;;;;3.70;3.40;;;8.50;99.90;;;;;;5114671;27;20221;-77
2022/11/18 06:02:39;;;;;;;3.63;3.33;;;8.50;99.90;;;;;;5111885;27;20221;-78
2022/11/18 06:05:07;;;;;;;3.80;3.50;;;8.50;99.90;;;;;;5107755;27;20193;-76
2022/11/18 06:07:39;;;;;;;3.60;3.30;;;8.50;99.90;;;;;;5112571;27;20682;-76
2022/11/18 06:10:08;;;;;;;3.42;3.22;;;8.60;99.90;;;;;;5107406;27;20213;-77
2022/11/18 06:12:43;;;;;;;3.58;3.28;;;8.60;99.90;;;;;;5106690;27;20216;-78
2022/11/18 06:15:15;;;;;;;3.38;3.15;;;8.60;99.90;;;;;;5107552;27;20204;-83
2022/11/18 06:17:48;;;;;;;4.60;4.20;;;8.70;99.90;;;;;;5107283;27;20244;-82
2022/11/18 06:20:19;;;;;;;3.85;3.55;;;8.70;99.90;;;;;;5111430;27;20234;-75
2022/11/18 06:22:47;;;;;;;4.15;3.83;;;8.60;99.90;;;;;;5117233;27;20222;-84
2022/11/18 06:25:15;;;;;;;3.92;3.63;;;8.60;99.90;;;;;;5111433;27;20204;-79
2022/11/18 06:27:45;;;;;;;3.70;3.40;;;8.70;99.90;;;;;;5101573;27;20229;-78
2022/11/18 06:30:14;;;;;;;4.00;3.70;;;8.70;99.90;;;;;;5111226;27;20717;-83
2022/11/18 06:32:42;;;;;;;4.30;3.95;;;8.70;99.90;;;;;;5107033;27;20214;-79
2022/11/18 06:35:10;;;;;;;5.20;4.72;;;8.70;99.90;;;;;;5114013;27;20193;-77
2022/11/18 06:37:37;;;;;;;3.70;3.40;;;8.70;99.90;;;;;;5110897;28;20213;-78
2022/11/18 06:40:05;;;;;;;3.60;3.35;;;8.70;99.90;;;;;;5113304;27;20209;-79
2022/11/18 06:45:19;;;;;;;3.83;3.63;;;8.70;99.90;;;;;;5106535;27;20216;-85
2022/11/18 06:47:45;;;;;;;3.58;3.28;;;8.70;99.90;;;;;;5103904;27;20697;-76
2022/11/18 06:50:12;;;;;;;3.58;3.28;;;8.60;99.90;;;;;;5102433;28;20699;-76
2022/11/18 06:52:40;;;;;;;3.00;2.80;;;8.60;99.90;;;;;;5108440;27;20228;-82
2022/11/18 06:55:08;;;;;;;3.33;3.13;;;8.70;99.90;;;;;;5108806;27;20197;-79
2022/11/18 06:57:35;;;;;;;5.25;4.75;;;8.70;99.90;;;;;;5103602;27;20270;-79
2022/11/18 07:00:03;;;;;;;4.15;3.83;;;8.70;99.90;;;;;;5099959;27;20623;-80
2022/11/18 07:02:32;;;;;;;4.78;4.38;;;8.70;99.90;;;;;;5104842;28;20217;-76
2022/11/18 07:04:59;;;;;;;4.47;4.07;;;8.80;99.90;;;;;;5100084;27;20765;-78
2022/11/18 07:07:27;;;;;;;3.63;3.33;;;8.80;99.90;;;;;;5105715;27;20227;-84
2022/11/18 07:09:54;;;;;;;3.35;3.05;;;8.90;99.90;;;;;;5101764;27;20255;-79
2022/11/18 07:12:22;;;;;;;3.65;3.35;;;9.00;99.90;;;;;;5104071;27;20251;-79
2022/11/18 07:14:49;;;;;;;3.88;3.58;;;9.10;99.90;;;;;;5102394;27;20616;-78
2022/11/18 07:17:16;;;;;;;4.28;3.83;;;9.10;99.90;;;;;;5106427;27;20232;-83
2022/11/18 07:19:45;;;;;;;3.47;3.22;;;9.20;99.90;;;;;;5108599;27;20261;-77
2022/11/18 07:22:12;;;;;;;3.15;2.95;;;9.20;99.90;;;;;;5109869;27;20227;-80
2022/11/18 07:24:39;;;;;;;3.80;3.38;;;9.30;99.90;;;;;;5100872;27;20190;-79
2022/11/18 07:27:07;;;;;;;3.60;3.40;;;9.40;99.90;;;;;;5110136;27;20242;-78
2022/11/18 07:29:34;;;;;;;5.53;4.65;;;9.50;99.90;;;;;;5100008;28;20690;-80
2022/11/18 07:32:02;;;;;;;3.90;3.60;;;9.40;99.90;;;;;;5099402;27;20232;-79
2022/11/18 07:34:29;;;;;;;4.53;4.00;;;9.20;99.90;;;;;;5106810;27;20190;-77
2022/11/18 07:36:58;;;;;;;4.65;4.20;;;9.10;99.90;;;;;;5105616;27;20629;-81
2022/11/18 07:39:26;;;;;;;4.68;4.28;;;9.00;99.90;;;;;;5103141;28;20724;-78
2022/11/18 07:41:53;;;;;;;4.43;4.13;;;9.00;99.90;;;;;;5103658;27;20231;-77
2022/11/18 07:44:20;;;;;;;4.85;4.45;;;9.00;99.90;;;;;;5106318;27;21143;-77
2022/11/18 07:46:48;;;;;;;4.70;4.30;;;8.90;99.90;;;;;;5108956;27;20203;-82
2022/11/18 07:49:15;;;;;;;4.40;4.00;;;8.90;99.90;;;;;;5105177;27;20220;-78
2022/11/18 07:51:42;;;;;;;4.55;4.15;;;8.90;99.90;;;;;;5101287;28;20201;-76
2022/11/18 07:54:15;;;;;;;5.30;4.80;;;8.90;99.90;;;;;;5102297;27;20616;-78
2022/11/18 07:56:42;;;;;;;4.38;3.97;;;9.00;99.90;;;;;;5107483;27;20200;-77
2022/11/18 07:59:10;;;;;;;4.90;4.18;;;9.00;99.90;;;;;;5101648;28;20196;-79
2022/11/18 08:01:37;;;;;;;3.97;3.67;;;9.00;99.90;;;;;;5101136;27;20201;-77
2022/11/18 08:04:07;;;;;;;4.00;3.70;;;9.00;99.90;;;;;;5102914;28;20197;-83
2022/11/18 08:06:35;;;;;;;4.18;3.78;;;9.00;99.90;;;;;;5108912;27;20650;-80
2022/11/18 08:09:03;;;;;;;4.60;4.30;;;9.00;99.90;;;;;;5103740;28;20274;-82
2022/11/18 08:11:32;;;;;;;4.40;3.90;;;8.90;99.90;;;;;;5102442;28;20203;-80
2022/11/18 08:13:59;;;;;;;4.25;3.95;;;8.90;99.90;;;;;;5104578;27;20209;-79
2022/11/18 08:16:27;;;;;;;4.22;3.85;;;8.80;99.90;;;;;;5101824;28;20184;-77
2022/11/18 08:18:54;;;;;;;3.83;3.53;;;8.80;99.90;;;;;;5100057;28;20216;-78
2022/11/18 08:21:23;;;;;;;4.10;3.80;;;8.80;99.90;;;;;;5100244;28;20202;-77
2022/11/18 08:23:51;;;;;;;3.15;2.95;;;8.80;99.90;;;;;;5103341;28;20722;-79
2022/11/18 08:26:20;;;;;;;4.10;3.70;;;8.80;99.90;;;;;;5107802;28;20783;-77
2022/11/18 08:28:50;;;;;;;4.55;3.03;;;8.90;99.90;;;;;;5108829;28;20220;-82
2022/11/18 08:31:19;;;;;;;3.33;3.10;;;8.90;99.90;;;;;;5103526;28;20213;-77
2022/11/18 08:33:47;;;;;;;3.10;2.90;;;9.00;99.90;;;;;;5109698;28;20216;-78
2022/11/18 08:36:16;;;;;;;2.85;2.65;;;9.00;99.90;;;;;;5107490;28;20191;-77
2022/11/18 08:38:44;;;;;;;2.80;2.60;;;9.10;99.90;;;;;;5104144;28;20204;-77
2022/11/18 08:41:14;;;;;;;2.83;2.63;;;9.10;99.90;;;;;;5108305;27;20216;-77
2022/11/18 08:43:42;;;;;;;5.18;2.90;;;9.10;99.90;;;;;;5108698;27;20667;-80
2022/11/18 08:46:11;;;;;;;3.58;3.28;;;9.10;99.90;;;;;;5112171;27;20250;-77
2022/11/18 08:48:38;;;;;;;4.30;3.90;;;9.10;99.90;;;;;;5107114;27;20224;-77
2022/11/18 08:51:06;;;;;;;4.38;3.95;;;9.20;99.90;;;;;;5105811;27;20289;-77
2022/11/18 08:53:33;;;;;;;3.72;3.38;;;9.30;99.90;;;;;;5108820;27;20809;-78
2022/11/18 08:56:01;;;;;;;3.97;3.67;;;9.40;99.90;;;;;;5108615;27;20193;-77
2022/11/18 08:58:29;;;;;;;3.83;3.53;;;9.30;99.90;;;;;;5106731;27;20205;-77
2022/11/18 09:00:56;;;;;;;3.40;3.10;;;9.20;99.90;;;;;;5112163;27;20216;-77
2022/11/18 09:03:25;;;;;;;8.70;7.63;;;9.20;99.90;;;;;;5108466;27;20520;-77
2022/11/18 09:05:52;;;;;;;7.85;7.05;;;9.20;99.90;;;;;;5100928;27;20196;-78
2022/11/18 09:08:20;;;;;;;18.67;13.93;;;9.20;99.90;;;;;;5111030;27;20590;-78
2022/11/18 09:10:49;;;;;;;32.38;22.15;;;9.30;99.90;;;;;;5106252;27;20651;-78
2022/11/18 09:13:16;;;;;;;27.85;20.70;;;9.40;99.90;;;;;;5109560;27;20872;-77
2022/11/18 09:15:44;;;;;;;15.02;11.75;;;9.50;99.90;;;;;;5106732;27;20699;-83
2022/11/18 09:18:12;;;;;;;13.40;10.20;;;9.60;99.90;;;;;;5109623;27;20220;-80
2022/11/18 09:20:42;;;;;;;8.95;7.47;;;9.80;99.90;;;;;;5110969;27;20220;-78
2022/11/18 09:23:10;;;;;;;7.53;6.45;;;9.80;99.90;;;;;;5103825;27;20224;-77
2022/11/18 09:25:37;;;;;;;6.15;5.55;;;9.80;99.90;;;;;;5113230;27;20184;-83
2022/11/18 09:28:05;;;;;;;6.47;5.60;;;9.80;99.90;;;;;;5112861;27;20923;-79
2022/11/18 09:30:32;;;;;;;6.35;5.75;;;9.80;99.90;;;;;;5105541;27;20224;-76
2022/11/18 09:33:01;;;;;;;5.63;5.13;;;9.70;99.90;;;;;;5098336;28;20684;-76
2022/11/18 09:35:28;;;;;;;6.20;5.60;;;9.80;99.90;;;;;;5108162;28;20197;-76
2022/11/18 09:37:57;;;;;;;6.78;6.07;;;9.80;99.90;;;;;;5109149;27;20213;-77
2022/11/18 09:40:24;;;;;;;7.90;6.60;;;9.80;99.90;;;;;;5100607;27;20209;-76
2022/11/18 09:42:59;;;;;;;9.00;7.55;;;9.80;99.90;;;;;;5111204;28;20213;-77
2022/11/18 09:45:33;;;;;;;12.73;9.88;;;9.90;99.90;;;;;;5107688;27;20196;-84
2022/11/18 09:48:02;;;;;;;11.18;9.43;;;9.90;99.90;;;;;;5110953;27;20716;-80
2022/11/18 09:50:31;;;;;;;8.23;7.43;;;10.00;99.90;;;;;;5107976;28;20405;-79
2022/11/18 09:53:10;;;;;;;6.68;6.03;;;10.10;99.90;;;;;;5109355;27;20599;-81
2022/11/18 09:55:39;;;;;;;6.65;5.63;;;10.10;99.90;;;;;;5104726;28;20193;-81
2022/11/18 09:58:07;;;;;;;5.57;5.03;;;10.20;99.90;;;;;;5108000;28;20240;-82
2022/11/18 10:00:35;;;;;;;4.70;4.10;;;10.40;99.90;;;;;;5108333;27;20212;-81
2022/11/18 10:03:05;;;;;;;4.22;3.85;;;10.50;99.90;;;;;;5109580;27;20221;-78
2022/11/18 10:05:45;;;;;;;4.07;3.70;;;10.50;99.90;;;;;;5110349;28;20216;-89
2022/11/18 10:08:24;;;;;;;6.30;4.40;;;10.30;99.90;;;;;;5110999;27;20576;-83
2022/11/18 10:11:01;;;;;;;4.07;3.78;;;10.30;99.90;;;;;;5108221;27;20220;-82
2022/11/18 10:13:42;;;;;;;5.38;4.88;;;10.40;99.90;;;;;;5108756;28;20303;-81
2022/11/18 10:16:23;;;;;;;6.70;5.63;;;10.50;99.90;;;;;;5101722;27;20231;-84
2022/11/18 10:18:59;;;;;;;14.18;11.85;;;10.70;99.90;;;;;;5108540;27;20266;-81
2022/11/18 10:21:39;;;;;;;7.00;6.30;;;11.00;99.90;;;;;;5108588;27;20189;-80
2022/11/18 10:24:15;;;;;;;7.05;6.45;;;11.20;99.90;;;;;;5108821;27;20219;-82
2022/11/18 10:26:43;;;;;;;6.07;5.40;;;11.40;99.90;;;;;;5104167;28;20196;-79
2022/11/18 10:29:11;;;;;;;4.78;4.38;;;11.70;99.90;;;;;;5101006;28;20220;-80
2022/11/18 10:31:39;;;;;;;5.85;4.75;;;12.00;99.90;;;;;;5098810;28;20201;-83
2022/11/18 10:34:10;;;;;;;5.07;4.68;;;12.60;99.90;;;;;;5102984;28;20198;-83
2022/11/18 10:36:38;;;;;;;4.57;4.18;;;13.10;99.90;;;;;;5097225;27;20197;-78
2022/11/18 10:39:07;;;;;;;4.47;4.07;;;13.40;99.90;;;;;;5104773;27;20276;-81
2022/11/18 10:41:47;;;;;;;4.85;4.45;;;14.00;99.90;;;;;;5106060;27;20578;-82
2022/11/18 10:44:34;;;;;;;4.80;4.40;;;14.60;99.90;;;;;;5108691;27;20204;-79
2022/11/18 10:47:25;;;;;;;4.53;4.10;;;15.40;99.90;;;;;;5105594;27;20228;-80
2022/11/18 10:49:53;;;;;;;4.85;4.43;;;15.90;99.90;;;;;;5104323;27;20235;-83
2022/11/18 10:52:22;;;;;;;4.47;4.13;;;16.10;99.90;;;;;;5101875;27;20204;-81
2022/11/18 10:55:20;;;;;;;6.30;4.97;;;16.10;99.90;;;;;;5097342;27;20197;-81
2022/11/18 10:57:54;;;;;;;4.47;4.10;;;16.30;99.90;;;;;;5099606;27;20217;-80
2022/11/18 11:00:43;;;;;;;4.72;4.32;;;16.40;99.90;;;;;;5103658;27;20229;-77
2022/11/18 11:03:36;;;;;;;5.18;4.68;;;16.50;99.90;;;;;;5101178;27;20220;-80
2022/11/18 11:06:28;;;;;;;4.65;4.20;;;16.30;99.90;;;;;;5104197;28;20219;-77
2022/11/18 11:08:57;;;;;;;4.50;4.20;;;16.00;99.90;;;;;;5101150;28;20545;-83
2022/11/18 11:11:27;;;;;;;4.55;4.15;;;16.20;99.90;;;;;;5105932;27;20204;-76
2022/11/18 11:14:20;;;;;;;4.47;4.07;;;16.30;99.90;;;;;;5103627;27;20716;-77
2022/11/18 11:16:58;;;;;;;5.80;4.95;;;16.20;99.90;;;;;;5105804;27;20204;-81
2022/11/18 11:19:33;;;;;;;4.85;4.30;;;16.30;99.90;;;;;;5106578;27;20219;-74
2022/11/18 11:22:00;;;;;;;3.90;3.60;;;16.20;99.90;;;;;;5103705;27;20243;-76
2022/11/18 11:24:28;;;;;;;3.60;3.30;;;16.10;99.90;;;;;;5100730;28;20216;-84
2022/11/18 11:27:10;;;;;;;3.20;2.97;;;15.90;99.90;;;;;;5103668;28;20648;-79
2022/11/18 11:30:03;;;;;;;3.13;2.90;;;15.70;99.90;;;;;;5102404;28;20680;-79
2022/11/18 11:32:39;;;;;;;3.20;2.90;;;15.50;99.90;;;;;;5098424;27;20216;-83
2022/11/18 11:35:16;;;;;;;3.28;2.63;;;15.60;99.90;;;;;;5102527;27;20669;-83
2022/11/18 11:37:52;;;;;;;3.58;2.70;;;16.10;99.90;;;;;;5101337;28;20591;-84
2022/11/18 11:40:33;;;;;;;3.30;2.80;;;16.40;99.90;;;;;;5104768;27;20246;-80
2022/11/18 11:43:31;;;;;;;3.40;2.72;;;16.60;99.90;;;;;;5098833;28;20225;-76
2022/11/18 11:46:28;;;;;;;4.72;2.47;;;16.70;99.90;;;;;;5094490;27;20776;-76
2022/11/18 11:49:11;;;;;;;2.67;2.45;;;16.80;99.90;;;;;;5103153;28;20212;-82
2022/11/18 11:51:46;;;;;;;2.70;2.50;;;16.70;99.90;;;;;;5103629;27;20192;-84
2022/11/18 11:54:39;;;;;;;3.90;2.80;;;16.70;99.90;;;;;;5104422;28;20201;-86
2022/11/18 11:57:18;;;;;;;2.88;2.58;;;16.80;99.90;;;;;;5102038;28;20216;-83
2022/11/18 11:59:49;;;;;;;3.13;2.80;;;16.70;99.90;;;;;;5104047;28;20235;-75
2022/11/18 12:02:42;;;;;;;2.92;2.63;;;16.60;99.90;;;;;;5125594;22;20225;-71
2022/11/18 12:05:19;;;;;;;3.30;2.65;;;16.50;99.90;;;;;;5062978;28;20210;-71
2022/11/18 12:07:51;;;;;;;2.72;2.53;;;16.40;99.90;;;;;;5058307;28;20213;-70
2022/11/18 12:10:30;;;;;;;2.65;2.45;;;16.30;99.90;;;;;;5059452;28;20976;-70
2022/11/18 12:13:11;;;;;;;2.80;2.60;;;16.40;99.90;;;;;;5039023;28;20218;-70
2022/11/18 12:15:52;;;;;;;2.40;2.20;;;16.70;99.90;;;;;;5037290;28;20627;-71
2022/11/18 12:18:26;;;;;;;2.53;2.20;;;16.90;99.90;;;;;;5041243;28;20820;-70
2022/11/18 12:20:54;;;;;;;2.90;2.65;;;16.80;99.90;;;;;;5077188;22;20227;-74
2022/11/18 12:23:23;;;;;;;2.38;2.17;;;16.90;99.90;;;;;;5120296;27;20626;-74
2022/11/18 12:26:16;;;;;;;2.20;2.10;;;17.00;99.90;;;;;;5121780;28;20696;-74
2022/11/18 12:28:45;;;;;;;2.75;2.05;;;17.20;99.90;;;;;;5126953;28;20268;-75
2022/11/18 12:31:34;;;;;;;2.40;2.20;;;17.40;99.90;;;;;;5121003;28;20692;-74
2022/11/18 12:34:17;;;;;;;2.13;1.95;;;17.50;99.90;;;;;;5117228;28;20220;-74
2022/11/18 12:36:45;;;;;;;2.97;2.20;;;17.60;99.90;;;;;;5118745;27;20665;-74
2022/11/18 12:39:49;;;;;;;2.35;2.15;;;17.40;99.90;;;;;;5115032;28;20204;-74
2022/11/18 12:45:57;;;;;;;2.50;2.30;;;17.70;99.90;;;;;;5119156;28;20284;-74
2022/11/18 12:48:33;;;;;;;6.50;2.20;;;17.50;99.90;;;;;;5121575;27;20213;-74
2022/11/18 12:51:11;;;;;;;2.22;2.13;;;17.70;99.90;;;;;;5120076;28;20204;-74
2022/11/18 12:53:42;;;;;;;2.10;2.00;;;17.90;99.90;;;;;;5116483;27;20216;-74
2022/11/18 12:56:22;;;;;;;2.30;2.10;;;17.90;99.90;;;;;;5119103;28;20203;-74
2022/11/18 12:58:51;;;;;;;2.55;2.35;;;17.70;99.90;;;;;;5118628;27;20212;-74
2022/11/18 13:01:20;;;;;;;2.25;2.10;;;17.50;99.90;;;;;;5117042;27;20629;-74
2022/11/18 13:03:48;;;;;;;2.40;2.20;;;17.50;99.90;;;;;;5123035;27;20701;-74
2022/11/18 13:06:24;;;;;;;2.10;1.88;;;17.60;99.90;;;;;;5119144;27;20657;-74
2022/11/18 13:08:55;;;;;;;2.15;2.00;;;17.70;99.90;;;;;;5118358;28;20212;-74
2022/11/18 13:19:56;;;;;;;2.10;1.92;;;17.30;99.90;;;;;;5111706;28;20276;-74
2022/11/18 13:25:25;;;;;;;2.33;2.13;;;17.20;99.90;;;;;;5120815;28;20706;-74
2022/11/18 13:28:01;;;;;;;3.45;1.80;;;17.20;99.90;;;;;;5118154;27;20225;-74
2022/11/18 13:30:30;;;;;;;1.88;1.60;;;17.00;99.90;;;;;;5125225;27;20247;-74
2022/11/18 13:33:00;;;;;;;1.63;1.52;;;17.00;99.90;;;;;;5106863;27;20216;-74
2022/11/18 13:35:28;;;;;;;1.92;1.80;;;17.10;99.90;;;;;;5117425;27;20205;-74
2022/11/18 13:37:59;;;;;;;2.17;1.90;;;17.20;99.90;;;;;;5131667;27;20211;-74
2022/11/18 13:40:28;;;;;;;1.50;1.40;;;17.30;99.90;;;;;;5128570;27;20200;-74
2022/11/18 13:42:57;;;;;;;2.20;2.00;;;17.30;99.90;;;;;;5116952;27;20223;-74
2022/11/18 13:45:28;;;;;;;2.78;2.17;;;17.20;99.90;;;;;;5120443;27;20204;-74